sensor_id;sensor_type;location;lat;lon;timestamp;pressure;altitude;pressure_sealevel;temperature;humidity
50093;BME280;35974;47.752;10.290;2023-04-10T00:01:05;94379.69;;;-0.29;100.00
50093;BME280;35974;47.752;10.290;2023-04-10T00:03:36;94381.03;;;-0.35;100.00
50093;BME280;35974;47.752;10.290;2023-04-10T00:06:03;94384.19;;;-0.43;100.00
50093;BME280;35974;47.752;10.290;2023-04-10T00:08:29;94382.78;;;-0.14;100.00
50093;BME280;35974;47.752;10.290;2023-04-10T00:10:55;94377.59;;;-0.24;100.00
50093;BME280;35974;47.752;10.290;2023-04-10T00:13:22;94378.19;;;-0.11;100.00
50093;BME280;35974;47.752;10.290;2023-04-10T00:15:48;94375.69;;;-0.22;100.00
50093;BME280;35974;47.752;10.290;2023-04-10T00:18:15;94361.25;;;-0.34;100.00
50093;BME280;35974;47.752;10.290;2023-04-10T00:20:42;94356.09;;;-0.34;100.00
50093;BME280;35974;47.752;10.290;2023-04-10T00:23:08;94352.13;;;-0.27;100.00
50093;BME280;35974;47.752;10.290;2023-04-10T00:25:35;94355.38;;;-0.25;100.00
50093;BME280;35974;47.752;10.290;2023-04-10T00:28:01;94350.59;;;-0.09;100.00
50093;BME280;35974;47.752;10.290;2023-04-10T00:30:28;94351.34;;;-0.18;100.00
50093;BME280;35974;47.752;10.290;2023-04-10T00:32:54;94355.38;;;-0.25;100.00
50093;BME280;35974;47.752;10.290;2023-04-10T00:35:21;94347.47;;;-0.33;100.00
50093;BME280;35974;47.752;10.290;2023-04-10T00:37:47;94334.97;;;-0.38;100.00
50093;BME280;35974;47.752;10.290;2023-04-10T00:40:15;94341.22;;;-0.41;100.00
50093;BME280;35974;47.752;10.290;2023-04-10T00:42:41;94326.28;;;-0.47;100.00
50093;BME280;35974;47.752;10.290;2023-04-10T00:45:10;94331.41;;;-0.47;100.00
50093;BME280;35974;47.752;10.290;2023-04-10T00:47:37;94330.47;;;-0.46;100.00
50093;BME280;35974;47.752;10.290;2023-04-10T00:50:03;94325.56;;;-0.49;100.00
50093;BME280;35974;47.752;10.290;2023-04-10T00:52:30;94323.53;;;-0.55;100.00
50093;BME280;35974;47.752;10.290;2023-04-10T00:55:03;94320.75;;;-0.63;100.00
50093;BME280;35974;47.752;10.290;2023-04-10T00:57:30;94327.06;;;-0.67;100.00
50093;BME280;35974;47.752;10.290;2023-04-10T00:59:58;94319.03;;;-0.74;100.00
50093;BME280;35974;47.752;10.290;2023-04-10T01:02:25;94327.81;;;-0.77;100.00
50093;BME280;35974;47.752;10.290;2023-04-10T01:04:52;94327.38;;;-0.82;100.00
50093;BME280;35974;47.752;10.290;2023-04-10T01:07:20;94329.25;;;-0.84;100.00
50093;BME280;35974;47.752;10.290;2023-04-10T01:10:11;94337.41;;;-0.79;100.00
50093;BME280;35974;47.752;10.290;2023-04-10T01:20:13;94321.75;;;-0.76;100.00
50093;BME280;35974;47.752;10.290;2023-04-10T01:30:26;94330.97;;;-1.05;100.00
50093;BME280;35974;47.752;10.290;2023-04-10T01:32:54;94296.38;;;-1.34;100.00
50093;BME280;35974;47.752;10.290;2023-04-10T01:35:23;94338.94;;;-1.20;100.00
50093;BME280;35974;47.752;10.290;2023-04-10T01:37:49;94330.78;;;-1.25;100.00
50093;BME280;35974;47.752;10.290;2023-04-10T01:40:17;94331.28;;;-1.31;100.00
50093;BME280;35974;47.752;10.290;2023-04-10T01:42:49;94332.06;;;-1.31;100.00
50093;BME280;35974;47.752;10.290;2023-04-10T01:45:19;94331.75;;;-1.37;100.00
50093;BME280;35974;47.752;10.290;2023-04-10T01:47:46;94320.56;;;-1.36;100.00
50093;BME280;35974;47.752;10.290;2023-04-10T01:50:12;94321.94;;;-1.43;100.00
50093;BME280;35974;47.752;10.290;2023-04-10T01:52:39;94322.59;;;-1.30;100.00
50093;BME280;35974;47.752;10.290;2023-04-10T01:55:06;94316.56;;;-1.40;100.00
50093;BME280;35974;47.752;10.290;2023-04-10T01:57:33;94317.06;;;-1.47;100.00
50093;BME280;35974;47.752;10.290;2023-04-10T02:00:01;94309.84;;;-1.53;100.00
50093;BME280;35974;47.752;10.290;2023-04-10T02:02:32;94312.06;;;-1.59;100.00
50093;BME280;35974;47.752;10.290;2023-04-10T02:04:58;94313.59;;;-1.68;100.00
50093;BME280;35974;47.752;10.290;2023-04-10T02:13:00;94312.91;;;-1.81;100.00
50093;BME280;35974;47.752;10.290;2023-04-10T02:15:30;94301.34;;;-1.87;100.00
50093;BME280;35974;47.752;10.290;2023-04-10T02:17:57;94304.53;;;-1.83;100.00
50093;BME280;35974;47.752;10.290;2023-04-10T02:20:25;94302.88;;;-1.85;100.00
50093;BME280;35974;47.752;10.290;2023-04-10T02:22:51;94299.63;;;-1.87;100.00
50093;BME280;35974;47.752;10.290;2023-04-10T02:25:18;94300.56;;;-1.88;100.00
50093;BME280;35974;47.752;10.290;2023-04-10T02:27:47;94303.34;;;-1.91;100.00
50093;BME280;35974;47.752;10.290;2023-04-10T02:30:20;94298.78;;;-1.98;100.00
50093;BME280;35974;47.752;10.290;2023-04-10T02:32:47;94296.56;;;-1.92;100.00
50093;BME280;35974;47.752;10.290;2023-04-10T02:35:13;94286.06;;;-1.89;100.00
50093;BME280;35974;47.752;10.290;2023-04-10T02:37:47;94297.06;;;-1.75;100.00
50093;BME280;35974;47.752;10.290;2023-04-10T02:40:15;94297.03;;;-1.53;100.00
50093;BME280;35974;47.752;10.290;2023-04-10T02:42:42;94308.22;;;-1.54;100.00
50093;BME280;35974;47.752;10.290;2023-04-10T02:45:08;94299.81;;;-1.44;100.00
50093;BME280;35974;47.752;10.290;2023-04-10T02:47:35;94299.59;;;-1.64;100.00
50093;BME280;35974;47.752;10.290;2023-04-10T02:50:01;94300.53;;;-1.76;100.00
50093;BME280;35974;47.752;10.290;2023-04-10T02:52:28;94303.09;;;-1.76;100.00
50093;BME280;35974;47.752;10.290;2023-04-10T02:54:54;94298.91;;;-1.77;100.00
50093;BME280;35974;47.752;10.290;2023-04-10T02:57:20;94296.44;;;-1.79;100.00
50093;BME280;35974;47.752;10.290;2023-04-10T02:59:50;94302.66;;;-1.81;100.00
50093;BME280;35974;47.752;10.290;2023-04-10T03:02:17;94294.72;;;-1.90;100.00
50093;BME280;35974;47.752;10.290;2023-04-10T03:04:43;94301.13;;;-1.95;100.00
50093;BME280;35974;47.752;10.290;2023-04-10T03:07:10;94290.75;;;-1.94;100.00
50093;BME280;35974;47.752;10.290;2023-04-10T03:09:36;94298.69;;;-1.97;100.00
50093;BME280;35974;47.752;10.290;2023-04-10T03:12:02;94292.16;;;-2.01;100.00
50093;BME280;35974;47.752;10.290;2023-04-10T03:14:29;94294.28;;;-2.06;100.00
50093;BME280;35974;47.752;10.290;2023-04-10T03:16:55;94289.38;;;-2.09;100.00
50093;BME280;35974;47.752;10.290;2023-04-10T03:19:21;94290.19;;;-2.09;100.00
50093;BME280;35974;47.752;10.290;2023-04-10T03:21:48;94296.00;;;-2.18;100.00
50093;BME280;35974;47.752;10.290;2023-04-10T03:24:14;94292.16;;;-2.24;100.00
50093;BME280;35974;47.752;10.290;2023-04-10T03:26:41;94291.22;;;-2.34;100.00
50093;BME280;35974;47.752;10.290;2023-04-10T03:29:08;94301.72;;;-2.37;100.00
50093;BME280;35974;47.752;10.290;2023-04-10T03:31:34;94300.97;;;-2.39;100.00
50093;BME280;35974;47.752;10.290;2023-04-10T03:34:00;94295.16;;;-2.41;100.00
50093;BME280;35974;47.752;10.290;2023-04-10T03:36:28;94298.41;;;-2.39;100.00
50093;BME280;35974;47.752;10.290;2023-04-10T03:38:54;94302.50;;;-2.36;100.00
50093;BME280;35974;47.752;10.290;2023-04-10T03:41:20;94304.16;;;-2.35;100.00
50093;BME280;35974;47.752;10.290;2023-04-10T03:43:50;94306.59;;;-2.34;100.00
50093;BME280;35974;47.752;10.290;2023-04-10T03:46:17;94296.81;;;-2.40;100.00
50093;BME280;35974;47.752;10.290;2023-04-10T03:48:43;94300.75;;;-2.47;100.00
50093;BME280;35974;47.752;10.290;2023-04-10T03:51:10;94308.44;;;-2.47;100.00
50093;BME280;35974;47.752;10.290;2023-04-10T03:53:36;94297.47;;;-2.49;100.00
50093;BME280;35974;47.752;10.290;2023-04-10T03:56:03;94297.94;;;-2.55;100.00
50093;BME280;35974;47.752;10.290;2023-04-10T03:58:29;94306.34;;;-2.53;100.00
50093;BME280;35974;47.752;10.290;2023-04-10T04:00:55;94300.94;;;-2.62;100.00
50093;BME280;35974;47.752;10.290;2023-04-10T04:03:22;94297.22;;;-2.69;100.00
50093;BME280;35974;47.752;10.290;2023-04-10T04:05:49;94302.56;;;-2.72;100.00
50093;BME280;35974;47.752;10.290;2023-04-10T04:08:16;94295.78;;;-2.73;100.00
50093;BME280;35974;47.752;10.290;2023-04-10T04:10:42;94303.50;;;-2.62;100.00
50093;BME280;35974;47.752;10.290;2023-04-10T04:13:08;94305.63;;;-2.44;100.00
50093;BME280;35974;47.752;10.290;2023-04-10T04:15:34;94300.50;;;-2.44;100.00
50093;BME280;35974;47.752;10.290;2023-04-10T04:18:01;94297.94;;;-2.55;100.00
50093;BME280;35974;47.752;10.290;2023-04-10T04:20:27;94291.88;;;-2.66;100.00
50093;BME280;35974;47.752;10.290;2023-04-10T04:22:53;94294.31;;;-2.64;100.00
50093;BME280;35974;47.752;10.290;2023-04-10T04:25:20;94294.09;;;-2.61;100.00
50093;BME280;35974;47.752;10.290;2023-04-10T04:27:46;94295.47;;;-2.57;100.00
50093;BME280;35974;47.752;10.290;2023-04-10T04:30:12;94294.69;;;-2.58;100.00
50093;BME280;35974;47.752;10.290;2023-04-10T04:35:29;94297.25;;;-2.58;100.00
50093;BME280;35974;47.752;10.290;2023-04-10T04:37:56;94293.06;;;-2.47;100.00
50093;BME280;35974;47.752;10.290;2023-04-10T04:40:22;94296.44;;;-2.47;100.00
50093;BME280;35974;47.752;10.290;2023-04-10T04:42:48;94303.28;;;-2.59;100.00
50093;BME280;35974;47.752;10.290;2023-04-10T04:45:14;94315.19;;;-2.58;100.00
50093;BME280;35974;47.752;10.290;2023-04-10T04:47:41;94307.97;;;-2.52;100.00
50093;BME280;35974;47.752;10.290;2023-04-10T04:50:08;94315.53;;;-2.51;100.00
50093;BME280;35974;47.752;10.290;2023-04-10T04:52:34;94313.31;;;-2.55;100.00
50093;BME280;35974;47.752;10.290;2023-04-10T04:55:00;94312.13;;;-2.63;100.00
50093;BME280;35974;47.752;10.290;2023-04-10T04:59:56;94315.63;;;-2.64;100.00
50093;BME280;35974;47.752;10.290;2023-04-10T05:02:22;94322.03;;;-2.69;100.00
50093;BME280;35974;47.752;10.290;2023-04-10T05:04:49;94321.19;;;-2.70;100.00
50093;BME280;35974;47.752;10.290;2023-04-10T05:07:15;94319.03;;;-2.63;100.00
50093;BME280;35974;47.752;10.290;2023-04-10T05:09:42;94321.72;;;-2.53;100.00
50093;BME280;35974;47.752;10.290;2023-04-10T05:12:08;94329.66;;;-2.45;100.00
50093;BME280;35974;47.752;10.290;2023-04-10T05:14:34;94335.03;;;-2.26;100.00
50093;BME280;35974;47.752;10.290;2023-04-10T05:17:01;94338.53;;;-2.27;100.00
50093;BME280;35974;47.752;10.290;2023-04-10T05:19:29;94340.97;;;-2.25;100.00
50093;BME280;35974;47.752;10.290;2023-04-10T05:21:55;94335.75;;;-2.24;100.00
50093;BME280;35974;47.752;10.290;2023-04-10T05:24:21;94337.84;;;-2.17;100.00
50093;BME280;35974;47.752;10.290;2023-04-10T05:26:48;94324.56;;;-2.00;100.00
50093;BME280;35974;47.752;10.290;2023-04-10T05:29:14;94327.84;;;-1.75;100.00
50093;BME280;35974;47.752;10.290;2023-04-10T05:31:40;94332.94;;;-1.53;100.00
50093;BME280;35974;47.752;10.290;2023-04-10T05:34:07;94320.34;;;-1.44;100.00
50093;BME280;35974;47.752;10.290;2023-04-10T05:36:33;94326.84;;;-1.40;100.00
50093;BME280;35974;47.752;10.290;2023-04-10T05:39:00;94321.00;;;-1.31;100.00
50093;BME280;35974;47.752;10.290;2023-04-10T05:41:26;94322.13;;;-1.24;100.00
50093;BME280;35974;47.752;10.290;2023-04-10T05:43:52;94322.06;;;-1.01;100.00
50093;BME280;35974;47.752;10.290;2023-04-10T05:46:18;94324.28;;;-0.97;100.00
50093;BME280;35974;47.752;10.290;2023-04-10T05:48:45;94321.34;;;-0.92;100.00
50093;BME280;35974;47.752;10.290;2023-04-10T05:51:11;94322.72;;;-0.88;100.00
50093;BME280;35974;47.752;10.290;2023-04-10T05:53:37;94324.09;;;-0.84;100.00
50093;BME280;35974;47.752;10.290;2023-04-10T05:56:04;94321.50;;;-0.72;100.00
50093;BME280;35974;47.752;10.290;2023-04-10T05:58:30;94318.88;;;-0.61;100.00
50093;BME280;35974;47.752;10.290;2023-04-10T06:00:57;94323.53;;;-0.55;100.00
50093;BME280;35974;47.752;10.290;2023-04-10T06:03:23;94324.63;;;-0.48;100.00
50093;BME280;35974;47.752;10.290;2023-04-10T06:05:52;94317.97;;;-0.29;100.00
50093;BME280;35974;47.752;10.290;2023-04-10T06:08:19;94314.56;;;-0.09;100.00
50093;BME280;35974;47.752;10.290;2023-04-10T06:10:45;94316.56;;;0.09;100.00
50093;BME280;35974;47.752;10.290;2023-04-10T06:13:11;94325.53;;;0.24;100.00
50093;BME280;35974;47.752;10.290;2023-04-10T06:15:41;94327.09;;;0.36;100.00
50093;BME280;35974;47.752;10.290;2023-04-10T06:18:07;94322.66;;;0.48;100.00
50093;BME280;35974;47.752;10.290;2023-04-10T06:20:34;94321.59;;;0.61;100.00
50093;BME280;35974;47.752;10.290;2023-04-10T06:23:01;94329.50;;;0.69;100.00
50093;BME280;35974;47.752;10.290;2023-04-10T06:25:27;94326.00;;;0.89;100.00
50093;BME280;35974;47.752;10.290;2023-04-10T06:27:54;94315.72;;;0.99;100.00
50093;BME280;35974;47.752;10.290;2023-04-10T06:30:20;94327.66;;;1.20;100.00
50093;BME280;35974;47.752;10.290;2023-04-10T06:32:46;94321.69;;;1.39;100.00
50093;BME280;35974;47.752;10.290;2023-04-10T06:35:13;94324.13;;;1.40;100.00
50093;BME280;35974;47.752;10.290;2023-04-10T06:37:39;94314.34;;;1.54;100.00
50093;BME280;35974;47.752;10.290;2023-04-10T06:40:06;94311.59;;;1.65;100.00
50093;BME280;35974;47.752;10.290;2023-04-10T06:42:38;94319.19;;;1.76;100.00
50093;BME280;35974;47.752;10.290;2023-04-10T06:45:06;94315.94;;;1.84;100.00
50093;BME280;35974;47.752;10.290;2023-04-10T06:47:33;94310.06;;;1.92;100.00
50093;BME280;35974;47.752;10.290;2023-04-10T06:49:59;94303.09;;;2.02;100.00
50093;BME280;35974;47.752;10.290;2023-04-10T06:52:25;94303.88;;;2.12;100.00
50093;BME280;35974;47.752;10.290;2023-04-10T06:54:52;94308.97;;;2.32;100.00
50093;BME280;35974;47.752;10.290;2023-04-10T06:57:18;94304.88;;;2.39;100.00
50093;BME280;35974;47.752;10.290;2023-04-10T06:59:44;94305.06;;;2.55;100.00
50093;BME280;35974;47.752;10.290;2023-04-10T07:02:11;94302.56;;;2.64;100.00
50093;BME280;35974;47.752;10.290;2023-04-10T07:04:37;94297.88;;;2.77;100.00
50093;BME280;35974;47.752;10.290;2023-04-10T07:07:03;94305.13;;;2.91;100.00
50093;BME280;35974;47.752;10.290;2023-04-10T07:09:34;94295.81;;;2.99;100.00
50093;BME280;35974;47.752;10.290;2023-04-10T07:12:01;94295.59;;;3.10;100.00
50093;BME280;35974;47.752;10.290;2023-04-10T07:14:27;94295.16;;;3.33;100.00
50093;BME280;35974;47.752;10.290;2023-04-10T07:16:54;94288.19;;;3.51;100.00
50093;BME280;35974;47.752;10.290;2023-04-10T07:19:20;94290.50;;;3.54;100.00
50093;BME280;35974;47.752;10.290;2023-04-10T07:21:46;94287.63;;;3.65;100.00
50093;BME280;35974;47.752;10.290;2023-04-10T07:24:16;94285.19;;;3.82;100.00
50093;BME280;35974;47.752;10.290;2023-04-10T07:26:43;94286.34;;;3.88;100.00
50093;BME280;35974;47.752;10.290;2023-04-10T07:29:09;94281.75;;;4.08;100.00
50093;BME280;35974;47.752;10.290;2023-04-10T07:31:43;94284.78;;;4.29;100.00
50093;BME280;35974;47.752;10.290;2023-04-10T07:34:10;94285.16;;;4.43;100.00
50093;BME280;35974;47.752;10.290;2023-04-10T07:36:37;94276.97;;;4.64;100.00
50093;BME280;35974;47.752;10.290;2023-04-10T07:39:03;94282.66;;;4.67;100.00
50093;BME280;35974;47.752;10.290;2023-04-10T07:41:29;94280.13;;;4.92;100.00
50093;BME280;35974;47.752;10.290;2023-04-10T07:43:56;94280.09;;;4.84;99.03
50093;BME280;35974;47.752;10.290;2023-04-10T07:46:22;94281.44;;;4.96;98.91
50093;BME280;35974;47.752;10.290;2023-04-10T07:48:49;94285.03;;;5.11;98.48
50093;BME280;35974;47.752;10.290;2023-04-10T07:51:15;94281.47;;;5.29;95.46
50093;BME280;35974;47.752;10.290;2023-04-10T07:53:42;94277.75;;;5.40;92.34
50093;BME280;35974;47.752;10.290;2023-04-10T07:56:13;94275.97;;;5.65;89.74
50093;BME280;35974;47.752;10.290;2023-04-10T07:58:40;94275.97;;;5.65;90.29
50093;BME280;35974;47.752;10.290;2023-04-10T08:01:06;94276.56;;;6.16;86.32
50093;BME280;35974;47.752;10.290;2023-04-10T08:03:39;94276.59;;;6.08;87.47
50093;BME280;35974;47.752;10.290;2023-04-10T08:06:09;94269.72;;;6.23;87.55
50093;BME280;35974;47.752;10.290;2023-04-10T08:08:37;94274.25;;;6.30;88.27
50093;BME280;35974;47.752;10.290;2023-04-10T08:11:06;94270.56;;;6.64;85.97
50093;BME280;35974;47.752;10.290;2023-04-10T08:13:32;94275.41;;;6.67;83.01
50093;BME280;35974;47.752;10.290;2023-04-10T08:15:59;94271.47;;;6.71;83.07
50093;BME280;35974;47.752;10.290;2023-04-10T08:18:25;94275.91;;;6.93;81.79
50093;BME280;35974;47.752;10.290;2023-04-10T08:20:52;94267.59;;;6.98;82.77
50093;BME280;35974;47.752;10.290;2023-04-10T08:23:28;94276.22;;;6.99;81.20
50093;BME280;35974;47.752;10.290;2023-04-10T08:25:54;94274.09;;;7.25;79.83
50093;BME280;35974;47.752;10.290;2023-04-10T08:28:21;94275.75;;;7.26;79.58
50093;BME280;35974;47.752;10.290;2023-04-10T08:30:47;94281.75;;;7.50;78.57
50093;BME280;35974;47.752;10.290;2023-04-10T08:33:14;94282.28;;;7.60;77.26
50093;BME280;35974;47.752;10.290;2023-04-10T08:35:40;94279.06;;;7.58;78.55
50093;BME280;35974;47.752;10.290;2023-04-10T08:38:06;94284.50;;;7.72;77.82
50093;BME280;35974;47.752;10.290;2023-04-10T08:40:39;94286.47;;;7.69;77.51
50093;BME280;35974;47.752;10.290;2023-04-10T08:43:06;94286.56;;;7.76;78.21
50093;BME280;35974;47.752;10.290;2023-04-10T08:45:32;94286.25;;;7.94;78.56
50093;BME280;35974;47.752;10.290;2023-04-10T08:48:01;94151.28;;;7.07;76.81
50093;BME280;35974;47.752;10.290;2023-04-10T08:50:30;94282.03;;;7.93;79.00
50093;BME280;35974;47.752;10.290;2023-04-10T08:52:59;94284.59;;;8.31;78.04
50093;BME280;35974;47.752;10.290;2023-04-10T08:55:28;94281.34;;;8.29;76.62
50093;BME280;35974;47.752;10.290;2023-04-10T08:57:54;94281.53;;;8.42;78.48
50093;BME280;35974;47.752;10.290;2023-04-10T09:00:27;94277.34;;;8.56;75.51
50093;BME280;35974;47.752;10.290;2023-04-10T09:02:53;94276.06;;;8.67;72.98
50093;BME280;35974;47.752;10.290;2023-04-10T09:05:24;94270.69;;;9.05;71.92
50093;BME280;35974;47.752;10.290;2023-04-10T09:07:51;94267.59;;;9.16;70.38
50093;BME280;35974;47.752;10.290;2023-04-10T09:10:18;94269.78;;;9.34;70.79
50093;BME280;35974;47.752;10.290;2023-04-10T09:12:44;94261.97;;;9.63;69.19
50093;BME280;35974;47.752;10.290;2023-04-10T09:15:11;94262.88;;;9.70;63.33
50093;BME280;35974;47.752;10.290;2023-04-10T09:20:24;94262.22;;;9.89;51.26
50093;BME280;35974;47.752;10.290;2023-04-10T09:22:51;94260.31;;;10.05;49.80
50093;BME280;35974;47.752;10.290;2023-04-10T09:25:28;94255.16;;;10.18;47.66
50093;BME280;35974;47.752;10.290;2023-04-10T09:28:02;94256.03;;;10.25;45.89
50093;BME280;35974;47.752;10.290;2023-04-10T09:30:38;94253.31;;;10.40;45.97
50093;BME280;35974;47.752;10.290;2023-04-10T09:33:24;94257.44;;;10.56;43.47
50093;BME280;35974;47.752;10.290;2023-04-10T09:35:56;94247.00;;;10.70;42.97
50093;BME280;35974;47.752;10.290;2023-04-10T09:38:23;94244.88;;;10.93;43.83
50093;BME280;35974;47.752;10.290;2023-04-10T09:40:50;94249.88;;;10.88;42.24
50093;BME280;35974;47.752;10.290;2023-04-10T09:43:21;94249.50;;;10.91;39.94
50093;BME280;35974;47.752;10.290;2023-04-10T09:48:17;94237.09;;;11.27;39.14
50093;BME280;35974;47.752;10.290;2023-04-10T09:50:44;94238.75;;;11.34;39.80
50093;BME280;35974;47.752;10.290;2023-04-10T09:53:11;94242.00;;;11.70;39.61
50093;BME280;35974;47.752;10.290;2023-04-10T09:55:38;94236.75;;;11.90;35.90
50093;BME280;35974;47.752;10.290;2023-04-10T09:58:04;94229.28;;;11.87;36.62
50093;BME280;35974;47.752;10.290;2023-04-10T10:00:41;94220.25;;;11.96;37.15
50093;BME280;35974;47.752;10.290;2023-04-10T10:03:09;94222.63;;;12.18;37.47
50093;BME280;35974;47.752;10.290;2023-04-10T10:05:36;94217.34;;;12.31;36.69
50093;BME280;35974;47.752;10.290;2023-04-10T10:08:04;94217.31;;;12.44;35.75
50093;BME280;35974;47.752;10.290;2023-04-10T10:10:31;94213.63;;;12.59;33.74
50093;BME280;35974;47.752;10.290;2023-04-10T10:13:01;94215.13;;;12.87;36.25
50093;BME280;35974;47.752;10.290;2023-04-10T10:15:50;94207.44;;;12.92;36.96
50093;BME280;35974;47.752;10.290;2023-04-10T10:18:24;94203.28;;;13.09;36.30
50093;BME280;35974;47.752;10.290;2023-04-10T10:20:52;94191.53;;;13.18;33.01
50093;BME280;35974;47.752;10.290;2023-04-10T10:23:18;94191.03;;;13.35;33.31
50093;BME280;35974;47.752;10.290;2023-04-10T10:25:46;94197.06;;;13.42;33.57
50093;BME280;35974;47.752;10.290;2023-04-10T10:28:13;94184.41;;;13.58;33.23
50093;BME280;35974;47.752;10.290;2023-04-10T10:30:41;94188.09;;;13.50;33.19
50093;BME280;35974;47.752;10.290;2023-04-10T10:33:08;94180.91;;;13.32;33.03
50093;BME280;35974;47.752;10.290;2023-04-10T10:35:35;94178.53;;;13.24;30.38
50093;BME280;35974;47.752;10.290;2023-04-10T10:38:03;94181.72;;;13.39;31.06
50093;BME280;35974;47.752;10.290;2023-04-10T10:43:06;94176.78;;;13.49;32.32
50093;BME280;35974;47.752;10.290;2023-04-10T10:45:35;94163.72;;;13.04;32.48
50093;BME280;35974;47.752;10.290;2023-04-10T10:48:03;94167.13;;;13.11;32.00
50093;BME280;35974;47.752;10.290;2023-04-10T10:53:37;94159.75;;;13.59;33.65
50093;BME280;35974;47.752;10.290;2023-04-10T10:58:52;94145.34;;;13.61;31.75
50093;BME280;35974;47.752;10.290;2023-04-10T11:01:27;94147.56;;;13.39;32.15
50093;BME280;35974;47.752;10.290;2023-04-10T11:03:53;94143.53;;;13.30;32.53
50093;BME280;35974;47.752;10.290;2023-04-10T11:06:21;94150.84;;;12.96;31.42
50093;BME280;35974;47.752;10.290;2023-04-10T11:09:19;94136.59;;;13.10;32.72
50093;BME280;35974;47.752;10.290;2023-04-10T11:11:56;94139.91;;;12.99;31.88
50093;BME280;35974;47.752;10.290;2023-04-10T11:14:24;94138.75;;;12.95;33.96
50093;BME280;35974;47.752;10.290;2023-04-10T11:16:50;94128.41;;;13.25;31.44
50093;BME280;35974;47.752;10.290;2023-04-10T11:19:16;94132.03;;;13.31;32.07
50093;BME280;35974;47.752;10.290;2023-04-10T11:24:24;94127.19;;;13.28;34.12
50093;BME280;35974;47.752;10.290;2023-04-10T11:26:51;94121.00;;;13.47;33.10
50093;BME280;35974;47.752;10.290;2023-04-10T11:31:57;94111.56;;;13.83;35.13
50093;BME280;35974;47.752;10.290;2023-04-10T11:34:23;94109.97;;;14.19;33.80
50093;BME280;35974;47.752;10.290;2023-04-10T11:36:50;94108.94;;;13.83;35.98
50093;BME280;35974;47.752;10.290;2023-04-10T11:39:18;94094.13;;;14.07;34.56
50093;BME280;35974;47.752;10.290;2023-04-10T11:41:49;94094.31;;;14.24;34.63
50093;BME280;35974;47.752;10.290;2023-04-10T11:44:16;94085.84;;;14.22;33.26
50093;BME280;35974;47.752;10.290;2023-04-10T11:46:43;94084.03;;;14.04;33.13
50093;BME280;35974;47.752;10.290;2023-04-10T11:49:16;94087.28;;;14.37;33.50
50093;BME280;35974;47.752;10.290;2023-04-10T11:51:44;94086.84;;;14.40;33.35
50093;BME280;35974;47.752;10.290;2023-04-10T11:54:14;94085.41;;;14.25;31.35
50093;BME280;35974;47.752;10.290;2023-04-10T11:56:42;94085.03;;;14.03;32.52
50093;BME280;35974;47.752;10.290;2023-04-10T11:59:09;94084.66;;;14.18;34.18
50093;BME280;35974;47.752;10.290;2023-04-10T12:01:41;94082.03;;;14.37;33.85
50093;BME280;35974;47.752;10.290;2023-04-10T12:04:12;94080.22;;;14.49;33.87
50093;BME280;35974;47.752;10.290;2023-04-10T12:06:44;94078.28;;;14.63;32.84
50093;BME280;35974;47.752;10.290;2023-04-10T12:09:14;94081.84;;;14.50;32.70
50093;BME280;35974;47.752;10.290;2023-04-10T12:11:48;94082.91;;;14.31;33.58
50093;BME280;35974;47.752;10.290;2023-04-10T12:14:15;94087.84;;;14.57;32.54
50093;BME280;35974;47.752;10.290;2023-04-10T12:16:42;94086.47;;;14.55;31.45
50093;BME280;35974;47.752;10.290;2023-04-10T12:19:09;94077.59;;;14.68;32.02
50093;BME280;35974;47.752;10.290;2023-04-10T12:21:36;94083.91;;;15.09;32.43
50093;BME280;35974;47.752;10.290;2023-04-10T12:24:03;94078.66;;;15.32;32.04
50093;BME280;35974;47.752;10.290;2023-04-10T12:26:29;94082.78;;;15.28;32.20
50093;BME280;35974;47.752;10.290;2023-04-10T12:28:57;94076.81;;;15.45;32.23
50093;BME280;35974;47.752;10.290;2023-04-10T12:31:30;94075.31;;;16.08;30.54
50093;BME280;35974;47.752;10.290;2023-04-10T12:33:59;94069.06;;;15.97;31.15
50093;BME280;35974;47.752;10.290;2023-04-10T12:36:28;94067.78;;;15.88;31.58
50093;BME280;35974;47.752;10.290;2023-04-10T12:38:55;94076.94;;;15.73;33.28
50093;BME280;35974;47.752;10.290;2023-04-10T12:41:23;94064.22;;;15.70;32.40
50093;BME280;35974;47.752;10.290;2023-04-10T12:43:50;94064.00;;;15.48;33.13
50093;BME280;35974;47.752;10.290;2023-04-10T12:46:24;94067.09;;;15.57;30.82
50093;BME280;35974;47.752;10.290;2023-04-10T12:48:51;94071.44;;;15.75;31.02
50093;BME280;35974;47.752;10.290;2023-04-10T12:51:18;94064.56;;;15.50;30.22
50093;BME280;35974;47.752;10.290;2023-04-10T12:53:44;94061.22;;;15.08;29.49
50093;BME280;35974;47.752;10.290;2023-04-10T12:56:13;94064.44;;;15.33;31.54
50093;BME280;35974;47.752;10.290;2023-04-10T12:58:39;94062.84;;;15.56;31.11
50093;BME280;35974;47.752;10.290;2023-04-10T13:01:07;94062.16;;;15.49;31.55
50093;BME280;35974;47.752;10.290;2023-04-10T13:03:35;94051.97;;;15.41;31.26
50093;BME280;35974;47.752;10.290;2023-04-10T13:06:02;94060.31;;;15.37;33.39
50093;BME280;35974;47.752;10.290;2023-04-10T13:08:30;94051.38;;;15.15;33.19
50093;BME280;35974;47.752;10.290;2023-04-10T13:10:58;94049.06;;;15.18;34.26
50093;BME280;35974;47.752;10.290;2023-04-10T13:13:33;94048.88;;;15.44;34.80
50093;BME280;35974;47.752;10.290;2023-04-10T13:15:59;94042.56;;;15.45;31.24
50093;BME280;35974;47.752;10.290;2023-04-10T13:18:26;94041.63;;;15.51;33.08
50093;BME280;35974;47.752;10.290;2023-04-10T13:20:52;94044.03;;;15.64;31.80
50093;BME280;35974;47.752;10.290;2023-04-10T13:23:19;94035.81;;;15.84;32.23
50093;BME280;35974;47.752;10.290;2023-04-10T13:25:45;94034.88;;;15.55;33.90
50093;BME280;35974;47.752;10.290;2023-04-10T13:28:12;94027.41;;;15.87;30.85
50093;BME280;35974;47.752;10.290;2023-04-10T13:30:38;94022.16;;;15.87;30.10
50093;BME280;35974;47.752;10.290;2023-04-10T13:33:06;94028.00;;;15.78;31.04
50093;BME280;35974;47.752;10.290;2023-04-10T13:35:32;94019.72;;;15.62;31.55